Startpagina
METAR-TAF:

METAR-TAF

Vliegvelden :

Piacenza, Italië

breedte: 44-55N, lengte: 009-44E, hoogte: 134 m

Actueel weer

Dit bericht is 40 minuten geleden gemaakt, om 12:55 UTC
Wind 7 kt uit het oosten
Temperatuur 27°C
Vochtigheid 42%
Druk 1016 hPa
Zicht 10 km of meer
geen wolken onder 1500 m en geen cumulonimbus

METAR: LIMS 091255Z 10007KT CAVOK 27/13 Q1016 RMK SKC VIS MIN 9999 WIND THR30 03006KT BLU

Tijdstip: 15:35 (13:35 UTC)


TAF: ontbreekt

Waarnemingen en weersverwachtingen van meer dan 4000 vliegvelden (METAR en TAF).

De beschikbare stations zijn de gele en rode punten op de kaart.

Ga met uw muis naar het station om de naam te zien.

Klik dan om waarnemingen en weersverwachtingen te zien.

kaart wijzigen: klik op de groene knoppen met een zwart kruis om in te zoomen, op de groene knop met een streepje om uit te zoomen of op de groene pijlen voor aangrenzende kaarten.


METAR-TAF: